createdAt,value
2023-01-28T00:00:31.166Z,5.3
2023-01-28T00:01:41.286Z,5.1
2023-01-28T00:02:51.454Z,5.8
2023-01-28T00:04:01.620Z,5
2023-01-28T00:05:11.775Z,4.8
2023-01-28T00:06:21.944Z,4.5
2023-01-28T00:07:32.100Z,4.7
2023-01-28T00:08:42.270Z,4.1
2023-01-28T00:09:52.434Z,3.9
2023-01-28T00:11:02.598Z,3.7
2023-01-28T00:12:12.758Z,4.5
2023-01-28T00:13:22.921Z,4
2023-01-28T00:14:33.082Z,3.7
2023-01-28T00:15:43.253Z,3.7
2023-01-28T00:16:53.413Z,4.2
2023-01-28T00:18:03.659Z,4.3
2023-01-28T00:19:13.910Z,4.6
2023-01-28T00:20:24.153Z,4
2023-01-28T00:21:34.403Z,4.1
2023-01-28T00:22:44.648Z,4.3
2023-01-28T00:23:54.895Z,4.7
2023-01-28T00:25:05.139Z,4.5
2023-01-28T00:26:15.378Z,5
2023-01-28T00:27:25.631Z,4.4
2023-01-28T00:28:35.873Z,4.6
2023-01-28T00:29:46.124Z,4.8
2023-01-28T00:30:56.362Z,4.5
2023-01-28T00:32:06.608Z,4.8
2023-01-28T00:34:44.705Z,4.8
2023-01-28T00:35:55.138Z,4.2
2023-01-28T00:37:04.569Z,3.9
2023-01-28T00:38:14.689Z,4
2023-01-28T00:39:24.800Z,4.4
2023-01-28T00:40:34.916Z,4.8
2023-01-28T00:41:45.035Z,4.5
2023-01-28T00:42:55.150Z,5.1
2023-01-28T00:44:05.271Z,5.5
2023-01-28T00:45:15.382Z,5.4
2023-01-28T00:46:25.506Z,4.9
2023-01-28T00:47:35.616Z,4.9
2023-01-28T00:48:45.734Z,5.5
2023-01-28T00:49:55.854Z,4.9
2023-01-28T00:51:05.970Z,5
2023-01-28T00:52:16.083Z,5.3
2023-01-28T00:53:26.208Z,5.4
2023-01-28T00:54:36.324Z,4.7
2023-01-28T00:55:46.437Z,4.6
2023-01-28T00:56:56.552Z,4.3
2023-01-28T00:58:06.676Z,4.6
2023-01-28T00:59:16.792Z,4.4
2023-01-28T01:00:26.905Z,3.7
2023-01-28T01:01:37.023Z,4
2023-01-28T01:02:47.140Z,3.7
2023-01-28T01:03:57.256Z,4
2023-01-28T01:05:07.375Z,3.9
2023-01-28T01:06:17.543Z,3.6
2023-01-28T01:07:27.707Z,4.1
2023-01-28T01:08:37.862Z,3.6
2023-01-28T01:09:48.025Z,4.1
2023-01-28T01:10:58.193Z,3.8
2023-01-28T01:12:08.355Z,4.2
2023-01-28T01:13:18.523Z,3.9
2023-01-28T01:14:28.679Z,4.1
2023-01-28T01:15:38.849Z,3.7
2023-01-28T01:16:49.007Z,3.7
2023-01-28T01:17:59.170Z,3.9
2023-01-28T01:19:09.337Z,3.7
2023-01-28T01:20:19.503Z,4.2
2023-01-28T01:21:29.751Z,4.3
2023-01-28T01:22:39.992Z,4.2
2023-01-28T01:23:50.242Z,4.3
2023-01-28T01:25:00.487Z,3.8
2023-01-28T01:26:10.730Z,4.4
2023-01-28T01:27:20.978Z,3.9
2023-01-28T01:28:31.223Z,4.3
2023-01-28T01:29:41.464Z,3.9
2023-01-28T01:30:51.716Z,3.9
2023-01-28T01:32:01.960Z,4.2
2023-01-28T01:33:12.206Z,3.9
2023-01-28T01:34:22.448Z,4
2023-01-28T01:35:32.694Z,4.2
2023-01-28T01:36:43.132Z,4.7
2023-01-28T01:38:19.409Z,3.8
2023-01-28T01:39:29.578Z,4.5
2023-01-28T01:40:39.737Z,4
2023-01-28T01:41:49.902Z,4.5
2023-01-28T01:43:00.062Z,4.2
2023-01-28T01:44:10.230Z,4.1
2023-01-28T01:45:20.388Z,4.3
2023-01-28T01:46:30.548Z,4.1
2023-01-28T01:47:40.716Z,3.8
2023-01-28T01:48:50.874Z,4.1
2023-01-28T01:50:01.043Z,4.3
2023-01-28T01:51:11.208Z,3.9
2023-01-28T01:52:21.366Z,4.2
2023-01-28T01:53:31.529Z,4.1
2023-01-28T01:54:41.698Z,3.8
2023-01-28T01:55:51.860Z,4.1
2023-01-28T01:57:02.022Z,4.6
2023-01-28T01:58:12.185Z,4.1
2023-01-28T01:59:22.352Z,4.2
2023-01-28T02:00:32.515Z,4.4
2023-01-28T02:01:42.673Z,3.9
2023-01-28T02:02:52.834Z,4.3
2023-01-28T02:04:02.999Z,4.2
2023-01-28T02:05:13.165Z,4.1
2023-01-28T02:06:23.328Z,4
2023-01-28T02:07:33.576Z,4
2023-01-28T02:08:43.820Z,4.4
2023-01-28T02:09:54.071Z,4.6
2023-01-28T02:11:04.316Z,4.3
2023-01-28T02:12:14.562Z,4.2
2023-01-28T02:13:24.800Z,4.2
2023-01-28T02:14:35.048Z,4.1
2023-01-28T02:15:45.300Z,4.3
2023-01-28T02:16:55.544Z,4.2
2023-01-28T02:18:05.784Z,4.3
2023-01-28T02:19:16.038Z,3.8
2023-01-28T02:20:26.275Z,4.3
2023-01-28T02:21:36.528Z,4.1
2023-01-28T02:22:46.958Z,4.2
2023-01-28T02:23:57.395Z,4.1
2023-01-28T02:25:06.819Z,4.4
2023-01-28T02:26:16.941Z,4.5
2023-01-28T02:27:27.056Z,4.4
2023-01-28T02:28:37.166Z,4.1
2023-01-28T02:29:47.292Z,4.4
2023-01-28T02:30:57.404Z,4.4
2023-01-28T02:32:07.518Z,4.5
2023-01-28T02:33:17.633Z,4.7
2023-01-28T02:34:27.755Z,4.5
2023-01-28T02:35:37.867Z,4.4
2023-01-28T02:36:47.985Z,4.8
2023-01-28T02:37:58.108Z,4.1
2023-01-28T02:39:08.219Z,4.4
2023-01-28T02:40:18.341Z,4.4
2023-01-28T02:41:28.455Z,4.1
2023-01-28T02:42:38.571Z,4.3
2023-01-28T02:43:48.687Z,4
2023-01-28T02:44:58.805Z,4.6
2023-01-28T02:46:08.925Z,3.9
2023-01-28T02:47:19.039Z,4
2023-01-28T02:48:29.155Z,4.3
2023-01-28T02:49:39.278Z,4.1
2023-01-28T02:50:49.390Z,4.3
2023-01-28T02:51:59.508Z,4.2
2023-01-28T02:53:09.621Z,4
2023-01-28T02:54:19.792Z,4.3
2023-01-28T02:55:29.954Z,4.3
2023-01-28T02:56:40.116Z,4.4
2023-01-28T02:57:50.283Z,4.7
2023-01-28T02:59:00.442Z,4.8
2023-01-28T03:00:10.609Z,4.6
2023-01-28T03:01:20.774Z,4.5
2023-01-28T03:02:30.933Z,4.8
2023-01-28T03:03:41.095Z,4.3
2023-01-28T03:04:51.258Z,4.4
2023-01-28T03:06:01.418Z,4.3
2023-01-28T03:07:11.584Z,4.2
2023-01-28T03:08:21.746Z,4.6
2023-01-28T03:09:31.997Z,4.9
2023-01-28T03:10:42.247Z,4.8
2023-01-28T03:11:52.492Z,4.8
2023-01-28T03:13:02.730Z,4.1
2023-01-28T03:14:12.977Z,5
2023-01-28T03:15:23.230Z,4.8
2023-01-28T03:16:33.476Z,5
2023-01-28T03:17:43.717Z,4.9
2023-01-28T03:18:53.963Z,4.3
2023-01-28T03:20:04.210Z,4.8
2023-01-28T03:21:14.456Z,4.7
2023-01-28T03:22:24.700Z,5.1
2023-01-28T03:23:34.945Z,4.9
2023-01-28T03:24:45.379Z,4.5
2023-01-28T03:26:21.921Z,4.9
2023-01-28T03:27:31.355Z,4.7
2023-01-28T03:28:41.463Z,4.8
2023-01-28T03:31:01.701Z,4.6
2023-01-28T03:32:11.815Z,4.3
2023-01-28T03:33:21.932Z,4.6
2023-01-28T03:34:32.047Z,4.6
2023-01-28T03:35:42.167Z,5.3
2023-01-28T03:36:52.282Z,4.6
2023-01-28T03:38:02.405Z,4.8
2023-01-28T03:39:12.517Z,4.8
2023-01-28T03:40:22.639Z,4.7
2023-01-28T03:41:32.754Z,5
2023-01-28T03:42:42.867Z,4.8
2023-01-28T03:43:52.982Z,4.8
2023-01-28T03:45:03.106Z,4.8
2023-01-28T03:46:13.222Z,4.3
2023-01-28T03:47:23.340Z,5
2023-01-28T03:48:33.454Z,4.4
2023-01-28T03:49:43.572Z,5.1
2023-01-28T03:50:53.692Z,5.2
2023-01-28T03:52:03.802Z,5.6
2023-01-28T03:53:13.918Z,4.7
2023-01-28T03:54:24.038Z,5.5
2023-01-28T03:55:34.160Z,5.1
2023-01-28T03:56:44.326Z,4.9
2023-01-28T03:57:54.482Z,5.3
2023-01-28T03:59:04.650Z,5
2023-01-28T04:00:14.812Z,5.2
2023-01-28T04:01:24.978Z,5.2
2023-01-28T04:02:35.133Z,5.2
2023-01-28T04:03:45.299Z,4.9
2023-01-28T04:04:55.461Z,5
2023-01-28T04:06:05.630Z,4.8
2023-01-28T04:07:15.785Z,5.1
2023-01-28T04:08:25.949Z,4.7
2023-01-28T04:09:36.113Z,4.5
2023-01-28T04:10:46.283Z,4
2023-01-28T04:11:56.525Z,4
2023-01-28T04:13:06.773Z,4
2023-01-28T04:14:17.021Z,3.6
2023-01-28T04:15:27.263Z,4.2
2023-01-28T04:16:37.518Z,4
2023-01-28T04:17:47.763Z,4.2
2023-01-28T04:18:58.010Z,4.1
2023-01-28T04:20:08.252Z,4.2
2023-01-28T04:21:18.502Z,3.8
2023-01-28T04:22:28.748Z,4
2023-01-28T04:23:38.987Z,4
2023-01-28T04:24:49.232Z,3.8
2023-01-28T04:25:59.484Z,4.6
2023-01-28T04:27:09.917Z,4.3
2023-01-28T04:28:46.142Z,4
2023-01-28T04:29:56.260Z,4.2
2023-01-28T04:31:06.374Z,3.9
2023-01-28T04:32:16.494Z,4
2023-01-28T04:33:26.610Z,4
2023-01-28T04:34:36.731Z,4.7
2023-01-28T04:35:46.850Z,4.4
2023-01-28T04:36:56.966Z,4.4
2023-01-28T04:38:07.083Z,4.1
2023-01-28T04:39:17.192Z,4.5
2023-01-28T04:40:27.310Z,3.6
2023-01-28T04:41:37.425Z,4.6
2023-01-28T04:42:47.548Z,4.2
2023-01-28T04:43:57.666Z,4.4
2023-01-28T04:45:07.783Z,4.3
2023-01-28T04:46:17.894Z,4.7
2023-01-28T04:47:28.020Z,4.5
2023-01-28T04:48:38.131Z,4.4
2023-01-28T04:49:48.253Z,4.5
2023-01-28T04:50:58.367Z,4.4
2023-01-28T04:52:08.484Z,4.7
2023-01-28T04:53:18.605Z,4.8
2023-01-28T04:54:28.713Z,4.7
2023-01-28T04:55:38.838Z,4.6
2023-01-28T04:56:48.949Z,4.7
2023-01-28T04:57:59.115Z,4.9
2023-01-28T04:59:09.280Z,4.8
2023-01-28T05:00:19.439Z,4.5
2023-01-28T05:01:29.609Z,4.7
2023-01-28T05:02:39.768Z,4.8
2023-01-28T05:03:49.935Z,4.9
2023-01-28T05:05:00.099Z,4.1
2023-01-28T05:06:10.260Z,4.5
2023-01-28T05:07:20.424Z,4.4
2023-01-28T05:08:30.583Z,4.4
2023-01-28T05:09:40.750Z,4.6
2023-01-28T05:10:50.918Z,4.2
2023-01-28T05:12:01.080Z,4.9
2023-01-28T05:13:11.323Z,4.8
2023-01-28T05:14:21.571Z,4.7
2023-01-28T05:15:31.817Z,4.7
2023-01-28T05:16:42.061Z,5
2023-01-28T05:17:52.315Z,4.7
2023-01-28T05:19:02.559Z,4.9
2023-01-28T05:20:12.803Z,5.1
2023-01-28T05:21:23.046Z,5
2023-01-28T05:22:33.291Z,4.6
2023-01-28T05:23:42.557Z,4.5
2023-01-28T05:24:52.671Z,4.9
2023-01-28T05:26:02.801Z,5.4
2023-01-28T05:27:12.911Z,4.5
2023-01-28T05:28:23.025Z,5
2023-01-28T05:29:33.147Z,5.3
2023-01-28T05:30:43.262Z,5.2
2023-01-28T05:31:53.381Z,5.1
2023-01-28T05:33:03.490Z,4.7
2023-01-28T05:34:13.608Z,4.8
2023-01-28T05:35:23.725Z,4.9
2023-01-28T05:36:33.846Z,4.3
2023-01-28T05:37:43.960Z,4.6
2023-01-28T05:38:54.081Z,4.9
2023-01-28T05:40:04.197Z,5.3
2023-01-28T05:41:14.314Z,5.4
2023-01-28T05:42:24.432Z,5.3
2023-01-28T05:43:34.546Z,5.3
2023-01-28T05:44:44.666Z,5.2
2023-01-28T05:45:54.788Z,6.2
2023-01-28T05:47:04.899Z,6
2023-01-28T05:48:15.018Z,5.5
2023-01-28T05:49:25.140Z,5.7
2023-01-28T05:50:35.248Z,6
2023-01-28T05:51:45.373Z,5.8
2023-01-28T05:52:55.538Z,6.4
2023-01-28T05:54:05.698Z,6.2
2023-01-28T05:55:15.862Z,7.2
2023-01-28T05:56:26.025Z,6.8
2023-01-28T05:57:36.194Z,6.4
2023-01-28T05:58:46.352Z,6.1
2023-01-28T05:59:56.514Z,6.7
2023-01-28T06:01:06.684Z,6.5
2023-01-28T06:02:16.840Z,5.7
2023-01-28T06:03:27.010Z,6
2023-01-28T06:04:37.168Z,5.6
2023-01-28T06:05:47.338Z,6.2
2023-01-28T06:06:57.498Z,5.9
2023-01-28T06:08:07.751Z,6.1
2023-01-28T06:09:17.990Z,5.8
2023-01-28T06:10:28.235Z,5.8
2023-01-28T06:11:38.490Z,6.4
2023-01-28T06:12:48.734Z,6.8
2023-01-28T06:13:58.974Z,6.4
2023-01-28T06:15:09.224Z,6.9
2023-01-28T06:16:19.467Z,6.9
2023-01-28T06:17:29.716Z,7
2023-01-28T06:18:39.961Z,7.5
2023-01-28T06:19:50.211Z,6.6
2023-01-28T06:21:00.453Z,6.5
2023-01-28T06:22:10.697Z,6.8
2023-01-28T06:24:49.744Z,6.8
2023-01-28T06:25:59.220Z,6.7
2023-01-28T06:27:09.387Z,7
2023-01-28T06:28:19.548Z,7
2023-01-28T06:29:29.712Z,6.8
2023-01-28T06:30:39.875Z,7.2
2023-01-28T06:31:50.043Z,8
2023-01-28T06:33:00.207Z,8.7
2023-01-28T06:34:10.367Z,8.9
2023-01-28T06:35:20.526Z,8.9
2023-01-28T06:36:30.689Z,8.8
2023-01-28T06:37:40.857Z,7.2
2023-01-28T06:38:51.020Z,7.5
2023-01-28T06:40:01.187Z,7.7
2023-01-28T06:41:11.349Z,6.9
2023-01-28T06:42:21.513Z,6.3
2023-01-28T06:43:31.674Z,6.3
2023-01-28T06:44:41.837Z,6.1
2023-01-28T06:45:52.007Z,5.8
2023-01-28T06:47:02.167Z,5.8
2023-01-28T06:48:12.332Z,6.1
2023-01-28T06:49:22.489Z,6
2023-01-28T06:50:32.655Z,6.5
2023-01-28T06:51:42.823Z,6.2
2023-01-28T06:52:52.987Z,6.3
2023-01-28T06:54:03.149Z,5.7
2023-01-28T06:55:13.393Z,5.8
2023-01-28T06:56:23.642Z,5.2
2023-01-28T06:57:33.884Z,5.3
2023-01-28T06:58:44.131Z,5.3
2023-01-28T06:59:54.377Z,5.2
2023-01-28T07:01:04.622Z,5.5
2023-01-28T07:02:14.868Z,5.9
2023-01-28T07:03:25.121Z,5.3
2023-01-28T07:04:35.368Z,5.6
2023-01-28T07:05:44.630Z,5.3
2023-01-28T07:06:54.739Z,5.6
2023-01-28T07:08:04.862Z,6.3
2023-01-28T07:09:14.979Z,5.4
2023-01-28T07:10:25.094Z,5.6
2023-01-28T07:11:35.216Z,5.8
2023-01-28T07:12:45.328Z,5.4
2023-01-28T07:13:55.449Z,5.4
2023-01-28T07:15:05.558Z,6.1
2023-01-28T07:16:15.684Z,6.1
2023-01-28T07:17:25.802Z,5.9
2023-01-28T07:18:35.914Z,6
2023-01-28T07:19:46.036Z,5.9
2023-01-28T07:20:56.146Z,6.3
2023-01-28T07:22:06.264Z,5.9
2023-01-28T07:23:16.385Z,6.2
2023-01-28T07:24:26.501Z,6.4
2023-01-28T07:25:36.618Z,6.6
2023-01-28T07:26:46.730Z,6.6
2023-01-28T07:27:56.853Z,6.7
2023-01-28T07:29:06.967Z,6.4
2023-01-28T07:30:17.085Z,6.7
2023-01-28T07:31:27.201Z,6.7
2023-01-28T07:32:37.318Z,6.3
2023-01-28T07:33:47.439Z,6.7
2023-01-28T07:34:57.602Z,7
2023-01-28T07:36:07.769Z,6.6
2023-01-28T07:37:17.936Z,6.7
2023-01-28T07:38:28.091Z,6.8
2023-01-28T07:39:38.262Z,7.1
2023-01-28T07:40:48.418Z,7.4
2023-01-28T07:41:58.589Z,7.5
2023-01-28T07:43:08.744Z,7.3
2023-01-28T07:44:18.917Z,7.4
2023-01-28T07:45:29.079Z,7.8
2023-01-28T07:46:39.236Z,7.2
2023-01-28T07:47:49.398Z,7.3
2023-01-28T07:48:59.565Z,7.4
2023-01-28T07:50:09.817Z,7.7
2023-01-28T07:51:20.059Z,7.9
2023-01-28T07:52:30.305Z,8.5
2023-01-28T07:53:40.553Z,8.9
2023-01-28T07:54:50.795Z,9.1
2023-01-28T07:56:01.050Z,9.2
2023-01-28T07:57:11.293Z,8.8
2023-01-28T07:58:21.541Z,9
2023-01-28T07:59:31.779Z,9.3
2023-01-28T08:00:42.027Z,9.4
2023-01-28T08:01:52.274Z,9.3
2023-01-28T08:03:02.520Z,8.7
2023-01-28T08:04:12.770Z,9.6
2023-01-28T08:06:52.124Z,9.6
2023-01-28T08:08:02.564Z,10.2
2023-01-28T08:09:11.991Z,10.3
2023-01-28T08:10:22.104Z,10.5
2023-01-28T08:11:32.224Z,10.4
2023-01-28T08:12:42.336Z,11
2023-01-28T08:13:52.455Z,11.4
2023-01-28T08:15:02.574Z,11
2023-01-28T08:16:12.688Z,12.2
2023-01-28T08:17:22.809Z,14
2023-01-28T08:18:32.929Z,14.5
2023-01-28T08:19:43.043Z,14.5
2023-01-28T08:20:53.163Z,14
2023-01-28T08:22:03.271Z,14
2023-01-28T08:23:13.391Z,13.2
2023-01-28T08:24:23.509Z,13.7
2023-01-28T08:25:33.626Z,14.2
2023-01-28T08:26:43.745Z,13
2023-01-28T08:27:53.866Z,13.4
2023-01-28T08:29:03.975Z,12.6
2023-01-28T08:30:14.099Z,13.4
2023-01-28T08:31:24.212Z,13.7
2023-01-28T08:32:34.330Z,13
2023-01-28T08:33:44.449Z,12.9
2023-01-28T08:34:54.561Z,13.1
2023-01-28T08:36:04.687Z,12.8
2023-01-28T08:37:14.797Z,12.6
2023-01-28T08:38:24.961Z,13.9
2023-01-28T08:39:35.125Z,12.8
2023-01-28T08:40:45.292Z,12.5
2023-01-28T08:41:55.456Z,13.3
2023-01-28T08:43:05.615Z,14.3
2023-01-28T08:44:15.786Z,13.5
2023-01-28T08:45:25.950Z,14.6
2023-01-28T08:46:36.106Z,13.2
2023-01-28T08:47:46.274Z,14.1
2023-01-28T08:48:56.442Z,14.5
2023-01-28T08:50:06.596Z,14.4
2023-01-28T08:51:16.762Z,13.9
2023-01-28T08:52:26.930Z,13.4
2023-01-28T08:53:37.173Z,14.3
2023-01-28T08:54:47.426Z,14.7
2023-01-28T08:55:57.664Z,13.9
2023-01-28T08:57:07.916Z,14
2023-01-28T08:58:18.162Z,14.2
2023-01-28T08:59:28.407Z,14.2
2023-01-28T09:00:38.656Z,14.4
2023-01-28T09:01:48.894Z,14.5
2023-01-28T09:02:59.144Z,13.3
2023-01-28T09:04:09.391Z,12.7
2023-01-28T09:06:29.878Z,12.9
2023-01-28T09:07:40.124Z,12.7
2023-01-28T09:08:50.567Z,13.3
2023-01-28T09:10:27.111Z,12.5
2023-01-28T09:11:36.585Z,12.7
2023-01-28T09:12:46.746Z,12.2
2023-01-28T09:13:56.912Z,12.2
2023-01-28T09:15:07.074Z,13.3
2023-01-28T09:16:17.242Z,12.5
2023-01-28T09:17:27.398Z,12.8
2023-01-28T09:18:37.568Z,12.8
2023-01-28T09:19:47.730Z,12.8
2023-01-28T09:20:57.894Z,12.7
2023-01-28T09:22:08.058Z,11.7
2023-01-28T09:23:18.214Z,12.3
2023-01-28T09:24:28.382Z,12.2
2023-01-28T09:25:38.549Z,12.8
2023-01-28T09:26:48.706Z,11.9
2023-01-28T09:27:58.868Z,12
2023-01-28T09:29:09.032Z,11.2
2023-01-28T09:30:19.194Z,11.5
2023-01-28T09:31:29.356Z,12.3
2023-01-28T09:32:39.524Z,11.7
2023-01-28T09:33:49.683Z,11.6
2023-01-28T09:34:59.853Z,11.8
2023-01-28T09:36:10.016Z,10.7
2023-01-28T09:37:20.181Z,10.7
2023-01-28T09:38:30.339Z,10.8
2023-01-28T09:39:40.505Z,10.4
2023-01-28T09:40:50.749Z,9.9
2023-01-28T09:42:00.995Z,10.2
2023-01-28T09:43:11.241Z,11.1
2023-01-28T09:44:21.487Z,10.6
2023-01-28T09:45:31.731Z,9.9
2023-01-28T09:46:41.979Z,10.1
2023-01-28T09:47:52.229Z,9.9
2023-01-28T09:49:02.472Z,10.6
2023-01-28T09:50:12.722Z,10.8
2023-01-28T09:51:22.969Z,10.7
2023-01-28T09:52:33.214Z,11
2023-01-28T09:53:43.457Z,10.5
2023-01-28T09:54:53.698Z,10.8
2023-01-28T09:56:34.744Z,11
2023-01-28T09:57:44.225Z,11.2
2023-01-28T09:58:54.384Z,11.8
2023-01-28T10:00:04.546Z,12.6
2023-01-28T10:01:14.707Z,12.5
2023-01-28T10:02:24.874Z,12.6
2023-01-28T10:03:35.035Z,12.1
2023-01-28T10:04:45.194Z,12.8
2023-01-28T10:05:55.357Z,12.3
2023-01-28T10:07:05.525Z,12.8
2023-01-28T10:08:15.687Z,12.6
2023-01-28T10:09:25.849Z,12.8
2023-01-28T10:10:36.015Z,13.1
2023-01-28T10:11:46.181Z,13.1
2023-01-28T10:12:56.345Z,12.9
2023-01-28T10:14:06.507Z,12.5
2023-01-28T10:15:16.670Z,13
2023-01-28T10:16:26.835Z,13.4
2023-01-28T10:17:36.997Z,13.1
2023-01-28T10:18:47.155Z,14
2023-01-28T10:19:57.321Z,13.6
2023-01-28T10:21:07.482Z,14.1
2023-01-28T10:22:17.645Z,14
2023-01-28T10:23:27.811Z,14.1
2023-01-28T10:24:37.971Z,14.2
2023-01-28T10:25:48.137Z,13.6
2023-01-28T10:26:58.381Z,13.6
2023-01-28T10:28:08.631Z,13.4
2023-01-28T10:29:18.877Z,13.5
2023-01-28T10:30:29.124Z,14.5
2023-01-28T10:31:39.373Z,13.9
2023-01-28T10:32:49.614Z,13.7
2023-01-28T10:33:59.863Z,13.3
2023-01-28T10:35:10.107Z,13.8
2023-01-28T10:36:20.347Z,13.6
2023-01-28T10:37:30.602Z,13.8
2023-01-28T10:38:40.844Z,14.4
2023-01-28T10:39:51.091Z,13.4
2023-01-28T10:41:01.339Z,13.8
2023-01-28T10:42:11.774Z,14.4
2023-01-28T10:43:22.202Z,13.5
2023-01-28T10:44:32.634Z,14.3
2023-01-28T10:45:42.060Z,14.9
2023-01-28T10:46:52.176Z,14.7
2023-01-28T10:48:02.296Z,15.1
2023-01-28T10:49:12.408Z,15
2023-01-28T10:50:22.530Z,14.1
2023-01-28T10:51:32.642Z,14.5
2023-01-28T10:52:42.766Z,14
2023-01-28T10:55:03.000Z,14.4
2023-01-28T10:56:13.110Z,15.1
2023-01-28T10:57:23.229Z,14.6
2023-01-28T10:58:33.343Z,14.1
2023-01-28T10:59:43.466Z,13.8
2023-01-28T11:00:53.580Z,14.1
2023-01-28T11:02:03.696Z,14.2
2023-01-28T11:03:13.814Z,13.9
2023-01-28T11:04:23.935Z,14.4
2023-01-28T11:05:34.051Z,14.4
2023-01-28T11:06:44.160Z,13.8
2023-01-28T11:07:54.281Z,15
2023-01-28T11:09:04.402Z,15.1
2023-01-28T11:10:14.514Z,14.7
2023-01-28T11:11:24.628Z,14.2
2023-01-28T11:12:34.752Z,14.7
2023-01-28T11:13:44.870Z,14.5
2023-01-28T11:14:55.032Z,15.8
2023-01-28T11:16:05.190Z,14.7
2023-01-28T11:17:15.358Z,16.1
2023-01-28T11:18:25.524Z,14.6
2023-01-28T11:19:35.684Z,15
2023-01-28T11:20:45.847Z,15.5
2023-01-28T11:21:56.007Z,15.1
2023-01-28T11:23:06.175Z,15
2023-01-28T11:24:16.338Z,14.2
2023-01-28T11:25:26.503Z,15.5
2023-01-28T11:26:36.662Z,15.3
2023-01-28T11:27:46.831Z,14.8
2023-01-28T11:28:56.995Z,16.2
2023-01-28T11:30:07.239Z,15.7
2023-01-28T11:31:17.488Z,15.3
2023-01-28T11:32:27.731Z,15.2
2023-01-28T11:33:37.977Z,14.5
2023-01-28T11:34:48.221Z,15.3
2023-01-28T11:35:58.464Z,15.4
2023-01-28T11:37:08.714Z,15.7
2023-01-28T11:38:18.959Z,15
2023-01-28T11:39:29.210Z,15.7
2023-01-28T11:40:39.454Z,15.3
2023-01-28T11:41:49.701Z,15.6
2023-01-28T11:42:59.946Z,16.4
2023-01-28T11:44:10.192Z,15.9
2023-01-28T11:45:20.628Z,15.5
2023-01-28T11:46:57.166Z,15.4
2023-01-28T11:48:06.590Z,15.7
2023-01-28T11:49:16.706Z,15.3
2023-01-28T11:50:26.832Z,14.5
2023-01-28T11:51:36.940Z,14.5
2023-01-28T11:52:47.062Z,15.1
2023-01-28T11:53:57.176Z,15.4
2023-01-28T11:55:07.298Z,15.8
2023-01-28T11:56:17.415Z,15.1
2023-01-28T11:57:27.533Z,15.1
2023-01-28T11:58:37.645Z,15
2023-01-28T11:59:47.759Z,15.1
2023-01-28T12:00:57.878Z,15
2023-01-28T12:02:07.997Z,15.1
2023-01-28T12:03:18.119Z,15.2
2023-01-28T12:04:28.230Z,15.2
2023-01-28T12:05:38.346Z,14.8
2023-01-28T12:06:48.470Z,15
2023-01-28T12:07:58.585Z,14.9
2023-01-28T12:09:08.696Z,15.1
2023-01-28T12:10:18.814Z,15.1
2023-01-28T12:11:28.931Z,14.6
2023-01-28T12:12:39.046Z,14.5
2023-01-28T12:13:49.162Z,13.6
2023-01-28T12:16:09.398Z,14
2023-01-28T12:17:19.564Z,14.9
2023-01-28T12:18:29.726Z,15.2
2023-01-28T12:19:39.890Z,15.2
2023-01-28T12:20:50.053Z,14.6
2023-01-28T12:22:00.221Z,15.3
2023-01-28T12:23:10.381Z,15.7
2023-01-28T12:24:20.547Z,15.3
2023-01-28T12:25:30.708Z,15
2023-01-28T12:26:40.873Z,14.6
2023-01-28T12:27:51.039Z,14.4
2023-01-28T12:29:01.203Z,15.1
2023-01-28T12:30:11.361Z,14.7
2023-01-28T12:31:21.523Z,15.1
2023-01-28T12:32:31.777Z,14.5
2023-01-28T12:33:42.021Z,14.6
2023-01-28T12:34:52.268Z,15
2023-01-28T12:36:02.512Z,15.6
2023-01-28T12:37:12.755Z,16
2023-01-28T12:38:23.003Z,14.8
2023-01-28T12:39:33.247Z,15.5
2023-01-28T12:40:43.500Z,16.1
2023-01-28T12:41:53.745Z,15.6
2023-01-28T12:43:03.993Z,15
2023-01-28T12:44:14.235Z,15.4
2023-01-28T12:45:24.479Z,15.9
2023-01-28T12:46:34.731Z,14.5
2023-01-28T12:47:45.166Z,15.4
2023-01-28T12:49:21.391Z,16.4
2023-01-28T12:50:31.503Z,15
2023-01-28T12:51:41.624Z,16.8
2023-01-28T12:52:51.742Z,15
2023-01-28T12:54:01.854Z,15.6
2023-01-28T12:55:11.973Z,15.1
2023-01-28T12:56:22.090Z,16.1
2023-01-28T12:57:32.204Z,15.8
2023-01-28T12:58:42.322Z,15.9
2023-01-28T12:59:52.440Z,16
2023-01-28T13:01:02.556Z,15.5
2023-01-28T13:02:12.675Z,16.1
2023-01-28T13:03:22.789Z,16.8
2023-01-28T13:04:32.910Z,16
2023-01-28T13:05:43.027Z,16.5
2023-01-28T13:06:53.149Z,15.8
2023-01-28T13:08:03.261Z,15.2
2023-01-28T13:09:13.379Z,16
2023-01-28T13:10:23.496Z,16.2
2023-01-28T13:11:33.611Z,16.3
2023-01-28T13:12:43.727Z,16.7
2023-01-28T13:13:53.851Z,16
2023-01-28T13:15:03.966Z,16.3
2023-01-28T13:16:14.085Z,16.7
2023-01-28T13:17:24.203Z,16.1
2023-01-28T13:18:34.361Z,16.1
2023-01-28T13:19:44.529Z,16.3
2023-01-28T13:20:54.688Z,16.2
2023-01-28T13:22:04.856Z,16.3
2023-01-28T13:23:15.018Z,16.2
2023-01-28T13:24:25.184Z,16.3
2023-01-28T13:25:35.343Z,15.8
2023-01-28T13:26:45.508Z,16
2023-01-28T13:27:55.672Z,15.5
2023-01-28T13:29:05.833Z,15.9
2023-01-28T13:30:15.998Z,16.2
2023-01-28T13:31:26.166Z,15.3
2023-01-28T13:32:36.324Z,16.1
2023-01-28T13:33:46.578Z,16
2023-01-28T13:34:56.818Z,15.8
2023-01-28T13:36:07.069Z,16.1
2023-01-28T13:37:17.314Z,16.4
2023-01-28T13:38:27.554Z,16.1
2023-01-28T13:39:37.802Z,15.9
2023-01-28T13:40:48.050Z,16
2023-01-28T13:41:58.295Z,15.8
2023-01-28T13:43:08.544Z,16.4
2023-01-28T13:44:18.786Z,15.3
2023-01-28T13:45:29.030Z,15.6
2023-01-28T13:46:39.276Z,14.9
2023-01-28T13:47:49.521Z,14.8
2023-01-28T13:50:28.823Z,14
2023-01-28T13:51:38.249Z,14.8
2023-01-28T13:52:48.363Z,15.2
2023-01-28T13:53:58.483Z,14.5
2023-01-28T13:55:08.604Z,14.2
2023-01-28T13:56:18.723Z,14.9
2023-01-28T13:57:28.831Z,15.1
2023-01-28T13:58:38.951Z,14.9
2023-01-28T13:59:49.069Z,14.8
2023-01-28T14:00:59.190Z,15.9
2023-01-28T14:02:09.306Z,14.7
2023-01-28T14:03:19.420Z,15.7
2023-01-28T14:04:29.536Z,15.8
2023-01-28T14:05:39.653Z,15.4
2023-01-28T14:06:49.776Z,15.1
2023-01-28T14:07:59.892Z,14.4
2023-01-28T14:09:10.002Z,15
2023-01-28T14:10:20.122Z,15.5
2023-01-28T14:11:30.242Z,15.4
2023-01-28T14:12:40.357Z,15.2
2023-01-28T14:13:50.476Z,15
2023-01-28T14:15:00.594Z,15.3
2023-01-28T14:16:10.705Z,15.1
2023-01-28T14:17:20.824Z,15
2023-01-28T14:18:30.946Z,14.9
2023-01-28T14:19:41.058Z,15.4
2023-01-28T14:20:51.228Z,15.6
2023-01-28T14:22:01.387Z,16
2023-01-28T14:23:11.550Z,16.2
2023-01-28T14:24:21.714Z,16
2023-01-28T14:25:31.882Z,16.6
2023-01-28T14:26:42.042Z,17
2023-01-28T14:27:52.205Z,17.2
2023-01-28T14:29:02.365Z,16.6
2023-01-28T14:30:12.531Z,16.7
2023-01-28T14:31:22.695Z,16.1
2023-01-28T14:32:32.853Z,15.4
2023-01-28T14:33:43.021Z,16
2023-01-28T14:34:53.183Z,15.4
2023-01-28T14:36:03.435Z,16.7
2023-01-28T14:37:13.677Z,15.2
2023-01-28T14:38:23.925Z,16.4
2023-01-28T14:39:34.165Z,16.2
2023-01-28T14:40:44.413Z,15.9
2023-01-28T14:41:54.663Z,16
2023-01-28T14:43:04.906Z,16.3
2023-01-28T14:44:15.151Z,16
2023-01-28T14:45:25.403Z,16.9
2023-01-28T14:46:35.645Z,16.4
2023-01-28T14:47:45.893Z,15.5
2023-01-28T14:48:56.141Z,15.8
2023-01-28T14:50:06.381Z,16
2023-01-28T14:51:16.817Z,15.7
2023-01-28T14:52:53.048Z,16.3
2023-01-28T14:54:03.162Z,14.6
2023-01-28T14:55:13.282Z,14.9
2023-01-28T14:56:23.394Z,15
2023-01-28T14:57:33.514Z,14.9
2023-01-28T14:58:43.634Z,15.4
2023-01-28T14:59:53.750Z,15.3
2023-01-28T15:01:03.870Z,14.4
2023-01-28T15:02:13.980Z,15
2023-01-28T15:04:34.216Z,15
2023-01-28T15:05:44.332Z,15.3
2023-01-28T15:06:54.454Z,15.1
2023-01-28T15:08:04.564Z,13.6
2023-01-28T15:09:14.679Z,14.2
2023-01-28T15:10:24.804Z,14.3
2023-01-28T15:11:34.920Z,15.1
2023-01-28T15:12:45.040Z,14.4
2023-01-28T15:13:55.156Z,13.7
2023-01-28T15:15:05.267Z,13.7
2023-01-28T15:16:15.390Z,13
2023-01-28T15:17:25.502Z,14.4
2023-01-28T15:18:35.616Z,13.6
2023-01-28T15:19:45.735Z,15.3
2023-01-28T15:20:55.850Z,14.2
2023-01-28T15:22:06.018Z,14.4
2023-01-28T15:23:16.179Z,14.7
2023-01-28T15:24:26.348Z,15
2023-01-28T15:25:36.509Z,16.1
2023-01-28T15:26:46.673Z,16.3
2023-01-28T15:27:56.835Z,18.3
2023-01-28T15:29:07.001Z,17.2
2023-01-28T15:30:17.167Z,16.6
2023-01-28T15:31:27.326Z,15.9
2023-01-28T15:32:37.488Z,16.5
2023-01-28T15:33:47.651Z,17.8
2023-01-28T15:34:57.816Z,17.8
2023-01-28T15:36:07.978Z,18.2
2023-01-28T15:37:18.230Z,17.3
2023-01-28T15:38:28.470Z,16.9
2023-01-28T15:39:38.715Z,17.6
2023-01-28T15:40:48.961Z,18.9
2023-01-28T15:41:59.212Z,20.1
2023-01-28T15:43:09.461Z,19.7
2023-01-28T15:44:19.703Z,17.5
2023-01-28T15:45:29.953Z,18
2023-01-28T15:46:40.190Z,17.1
2023-01-28T15:47:50.441Z,17.1
2023-01-28T15:49:00.682Z,17.7
2023-01-28T15:50:10.929Z,18.3
2023-01-28T15:51:21.172Z,17.5
2023-01-28T15:54:00.467Z,17.4
2023-01-28T15:55:09.896Z,20.9
2023-01-28T15:56:20.006Z,20.2
2023-01-28T15:57:30.124Z,19.6
2023-01-28T15:58:40.245Z,19.2
2023-01-28T15:59:50.363Z,18.4
2023-01-28T16:01:00.473Z,19
2023-01-28T16:02:10.591Z,18.7
2023-01-28T16:03:20.713Z,17.8
2023-01-28T16:04:30.829Z,16.8
2023-01-28T16:05:40.949Z,17.3
2023-01-28T16:06:51.061Z,18.4
2023-01-28T16:08:01.177Z,17
2023-01-28T16:09:11.299Z,16.9
2023-01-28T16:10:21.413Z,16.8
2023-01-28T16:11:31.525Z,18
2023-01-28T16:12:41.643Z,17.9
2023-01-28T16:13:51.761Z,18.7
2023-01-28T16:15:01.882Z,20